sensor_id;sensor_type;location;lat;lon;timestamp;pressure;altitude;pressure_sealevel;temperature;humidity
46714;BME280;32445;51.376;10.874;2023-02-19T00:00:21;99362.34;;;11.02;62.30
46714;BME280;32445;51.376;10.874;2023-02-19T00:03:22;99362.34;;;11.02;62.41
46714;BME280;32445;51.376;10.874;2023-02-19T00:06:24;99359.75;;;11.00;62.61
46714;BME280;32445;51.376;10.874;2023-02-19T00:09:24;99359.03;;;10.97;62.67
46714;BME280;32445;51.376;10.874;2023-02-19T00:12:24;99362.50;;;10.96;61.86
46714;BME280;32445;51.376;10.874;2023-02-19T00:15:25;99366.03;;;10.95;62.41
46714;BME280;32445;51.376;10.874;2023-02-19T00:18:25;99367.00;;;10.90;63.39
46714;BME280;32445;51.376;10.874;2023-02-19T00:21:26;99362.66;;;10.91;63.05
46714;BME280;32445;51.376;10.874;2023-02-19T00:24:27;99348.72;;;10.94;62.93
46714;BME280;32445;51.376;10.874;2023-02-19T00:27:27;99354.63;;;10.99;62.77
46714;BME280;32445;51.376;10.874;2023-02-19T00:30:27;99340.75;;;11.00;62.99
46714;BME280;32445;51.376;10.874;2023-02-19T00:33:28;99328.44;;;11.06;62.34
46714;BME280;32445;51.376;10.874;2023-02-19T00:36:30;99323.88;;;11.13;61.99
46714;BME280;32445;51.376;10.874;2023-02-19T00:39:30;99326.31;;;11.19;61.57
46714;BME280;32445;51.376;10.874;2023-02-19T00:42:31;99321.78;;;11.24;61.43
46714;BME280;32445;51.376;10.874;2023-02-19T00:45:31;99315.75;;;11.24;61.51
46714;BME280;32445;51.376;10.874;2023-02-19T00:48:34;99307.84;;;11.27;61.65
46714;BME280;32445;51.376;10.874;2023-02-19T00:51:36;99300.88;;;11.29;61.42
46714;BME280;32445;51.376;10.874;2023-02-19T00:54:36;99294.72;;;11.32;61.39
46714;BME280;32445;51.376;10.874;2023-02-19T00:57:37;99287.72;;;11.34;61.69
46714;BME280;32445;51.376;10.874;2023-02-19T01:00:37;99299.00;;;11.33;61.31
46714;BME280;32445;51.376;10.874;2023-02-19T01:03:39;99297.31;;;11.32;61.33
46714;BME280;32445;51.376;10.874;2023-02-19T01:06:39;99296.41;;;11.33;60.91
46714;BME280;32445;51.376;10.874;2023-02-19T01:09:40;99292.94;;;11.34;60.90
46714;BME280;32445;51.376;10.874;2023-02-19T01:12:40;99293.72;;;11.36;61.05
46714;BME280;32445;51.376;10.874;2023-02-19T01:15:41;99276.38;;;11.36;61.08
46714;BME280;32445;51.376;10.874;2023-02-19T01:18:41;99274.63;;;11.37;60.92
46714;BME280;32445;51.376;10.874;2023-02-19T01:21:42;99259.03;;;11.37;61.43
46714;BME280;32445;51.376;10.874;2023-02-19T01:24:42;99240.84;;;11.37;60.47
46714;BME280;32445;51.376;10.874;2023-02-19T01:27:43;99242.56;;;11.38;60.96
46714;BME280;32445;51.376;10.874;2023-02-19T01:30:43;99230.63;;;11.32;61.37
46714;BME280;32445;51.376;10.874;2023-02-19T01:33:45;99228.19;;;11.26;61.15
46714;BME280;32445;51.376;10.874;2023-02-19T01:36:45;99215.25;;;11.24;61.56
46714;BME280;32445;51.376;10.874;2023-02-19T01:39:46;99218.97;;;11.17;61.88
46714;BME280;32445;51.376;10.874;2023-02-19T01:42:47;99213.97;;;11.11;62.59
46714;BME280;32445;51.376;10.874;2023-02-19T01:45:47;99214.13;;;11.06;62.22
46714;BME280;32445;51.376;10.874;2023-02-19T01:48:47;99204.69;;;11.04;62.85
46714;BME280;32445;51.376;10.874;2023-02-19T01:51:56;99204.66;;;11.05;62.92
46714;BME280;32445;51.376;10.874;2023-02-19T01:54:59;99201.03;;;11.10;62.33
46714;BME280;32445;51.376;10.874;2023-02-19T01:58:02;99201.84;;;11.12;61.88
46714;BME280;32445;51.376;10.874;2023-02-19T02:01:05;99200.22;;;11.09;62.41
46714;BME280;32445;51.376;10.874;2023-02-19T02:04:07;99189.06;;;11.05;62.32
46714;BME280;32445;51.376;10.874;2023-02-19T02:07:10;99193.47;;;11.03;62.73
46714;BME280;32445;51.376;10.874;2023-02-19T02:10:37;99184.84;;;11.01;62.55
46714;BME280;32445;51.376;10.874;2023-02-19T02:13:38;99177.88;;;11.03;62.55
46714;BME280;32445;51.376;10.874;2023-02-19T02:27:55;99168.34;;;11.04;62.53
46714;BME280;32445;51.376;10.874;2023-02-19T02:34:03;99144.13;;;11.03;63.34
46714;BME280;32445;51.376;10.874;2023-02-19T02:37:06;99145.78;;;11.04;63.30
46714;BME280;32445;51.376;10.874;2023-02-19T02:40:09;99127.84;;;10.98;63.55
46714;BME280;32445;51.376;10.874;2023-02-19T02:43:10;99126.06;;;10.99;63.48
46714;BME280;32445;51.376;10.874;2023-02-19T02:46:17;99112.34;;;10.95;63.51
46714;BME280;32445;51.376;10.874;2023-02-19T02:49:21;99120.31;;;10.90;63.03
46714;BME280;32445;51.376;10.874;2023-02-19T02:52:23;99111.81;;;10.85;64.04
46714;BME280;32445;51.376;10.874;2023-02-19T02:55:46;99116.28;;;10.82;64.46
46714;BME280;32445;51.376;10.874;2023-02-19T02:58:49;99112.81;;;10.81;64.81
46714;BME280;32445;51.376;10.874;2023-02-19T03:01:53;99102.47;;;10.80;64.38
46714;BME280;32445;51.376;10.874;2023-02-19T03:05:19;99099.88;;;10.80;64.76
46714;BME280;32445;51.376;10.874;2023-02-19T03:08:50;99102.66;;;10.75;64.51
46714;BME280;32445;51.376;10.874;2023-02-19T03:11:52;99094.91;;;10.73;64.91
46714;BME280;32445;51.376;10.874;2023-02-19T03:15:13;99099.34;;;10.70;64.35
46714;BME280;32445;51.376;10.874;2023-02-19T03:18:34;99110.59;;;10.70;65.27
46714;BME280;32445;51.376;10.874;2023-02-19T03:25:11;99094.09;;;10.71;65.34
46714;BME280;32445;51.376;10.874;2023-02-19T03:28:34;99086.31;;;10.71;64.59
46714;BME280;32445;51.376;10.874;2023-02-19T03:32:18;99089.06;;;10.67;65.05
46714;BME280;32445;51.376;10.874;2023-02-19T03:35:23;99095.00;;;10.70;65.07
46714;BME280;32445;51.376;10.874;2023-02-19T03:38:40;99093.47;;;10.65;65.54
46714;BME280;32445;51.376;10.874;2023-02-19T03:48:32;99088.41;;;10.60;65.70
46714;BME280;32445;51.376;10.874;2023-02-19T03:51:44;99094.41;;;10.62;65.67
46714;BME280;32445;51.376;10.874;2023-02-19T03:58:08;99109.94;;;10.64;65.26
46714;BME280;32445;51.376;10.874;2023-02-19T04:01:34;99096.91;;;10.65;65.75
46714;BME280;32445;51.376;10.874;2023-02-19T04:04:43;99104.69;;;10.65;65.83
46714;BME280;32445;51.376;10.874;2023-02-19T04:07:49;99109.03;;;10.65;65.45
46714;BME280;32445;51.376;10.874;2023-02-19T04:10:51;99120.22;;;10.67;65.62
46714;BME280;32445;51.376;10.874;2023-02-19T04:13:59;99127.91;;;10.70;65.91
46714;BME280;32445;51.376;10.874;2023-02-19T04:17:05;99128.75;;;10.70;65.19
46714;BME280;32445;51.376;10.874;2023-02-19T04:20:07;99129.75;;;10.66;65.86
46714;BME280;32445;51.376;10.874;2023-02-19T04:23:10;99142.88;;;10.62;66.07
46714;BME280;32445;51.376;10.874;2023-02-19T04:26:11;99138.53;;;10.62;65.31
46714;BME280;32445;51.376;10.874;2023-02-19T04:29:12;99140.25;;;10.63;66.07
46714;BME280;32445;51.376;10.874;2023-02-19T04:32:13;99142.84;;;10.63;65.98
46714;BME280;32445;51.376;10.874;2023-02-19T04:35:13;99148.81;;;10.65;65.85
46714;BME280;32445;51.376;10.874;2023-02-19T04:38:14;99162.63;;;10.66;66.40
46714;BME280;32445;51.376;10.874;2023-02-19T04:41:14;99152.19;;;10.67;66.06
46714;BME280;32445;51.376;10.874;2023-02-19T04:44:14;99159.03;;;10.70;66.17
46714;BME280;32445;51.376;10.874;2023-02-19T04:47:15;99169.31;;;10.73;66.60
46714;BME280;32445;51.376;10.874;2023-02-19T04:50:18;99180.47;;;10.77;65.99
46714;BME280;32445;51.376;10.874;2023-02-19T04:53:18;99177.78;;;10.80;66.18
46714;BME280;32445;51.376;10.874;2023-02-19T04:56:19;99184.63;;;10.82;66.23
46714;BME280;32445;51.376;10.874;2023-02-19T04:59:19;99176.72;;;10.85;66.02
46714;BME280;32445;51.376;10.874;2023-02-19T05:02:19;99167.06;;;10.90;65.73
46714;BME280;32445;51.376;10.874;2023-02-19T05:05:19;99178.16;;;10.94;65.21
46714;BME280;32445;51.376;10.874;2023-02-19T05:08:20;99174.75;;;10.94;65.55
46714;BME280;32445;51.376;10.874;2023-02-19T05:11:20;99186.00;;;10.93;65.48
46714;BME280;32445;51.376;10.874;2023-02-19T05:14:22;99185.34;;;10.87;65.51
46714;BME280;32445;51.376;10.874;2023-02-19T05:17:23;99192.41;;;10.82;65.42
46714;BME280;32445;51.376;10.874;2023-02-19T05:20:23;99191.69;;;10.77;65.47
46714;BME280;32445;51.376;10.874;2023-02-19T05:23:24;99188.38;;;10.73;65.26
46714;BME280;32445;51.376;10.874;2023-02-19T05:26:24;99187.47;;;10.75;65.83
46714;BME280;32445;51.376;10.874;2023-02-19T05:29:25;99192.63;;;10.76;65.49
46714;BME280;32445;51.376;10.874;2023-02-19T05:32:26;99189.97;;;10.78;65.38
46714;BME280;32445;51.376;10.874;2023-02-19T05:35:26;99188.22;;;10.78;65.21
46714;BME280;32445;51.376;10.874;2023-02-19T05:38:26;99191.66;;;10.79;65.42
46714;BME280;32445;51.376;10.874;2023-02-19T05:41:28;99196.78;;;10.80;65.52
46714;BME280;32445;51.376;10.874;2023-02-19T05:44:29;99195.91;;;10.81;65.35
46714;BME280;32445;51.376;10.874;2023-02-19T05:47:29;99195.78;;;10.84;64.93
46714;BME280;32445;51.376;10.874;2023-02-19T05:50:31;99206.13;;;10.86;64.96
46714;BME280;32445;51.376;10.874;2023-02-19T05:53:32;99207.06;;;10.85;65.16
46714;BME280;32445;51.376;10.874;2023-02-19T05:56:40;99196.75;;;10.82;65.28
46714;BME280;32445;51.376;10.874;2023-02-19T05:59:41;99209.75;;;10.82;64.52
46714;BME280;32445;51.376;10.874;2023-02-19T06:02:42;99209.78;;;10.80;64.72
46714;BME280;32445;51.376;10.874;2023-02-19T06:05:42;99218.63;;;10.75;64.62
46714;BME280;32445;51.376;10.874;2023-02-19T06:08:42;99223.84;;;10.73;64.98
46714;BME280;32445;51.376;10.874;2023-02-19T06:11:43;99230.88;;;10.69;64.68
46714;BME280;32445;51.376;10.874;2023-02-19T06:14:44;99242.97;;;10.70;64.72
46714;BME280;32445;51.376;10.874;2023-02-19T06:17:44;99264.63;;;10.69;64.90
46714;BME280;32445;51.376;10.874;2023-02-19T06:20:44;99258.72;;;10.64;65.35
46714;BME280;32445;51.376;10.874;2023-02-19T06:23:45;99258.88;;;10.60;65.45
46714;BME280;32445;51.376;10.874;2023-02-19T06:26:45;99264.16;;;10.56;65.08
46714;BME280;32445;51.376;10.874;2023-02-19T06:29:46;99270.47;;;10.48;64.55
46714;BME280;32445;51.376;10.874;2023-02-19T06:32:46;99270.63;;;10.43;65.37
46714;BME280;32445;51.376;10.874;2023-02-19T06:35:46;99268.84;;;10.44;64.94
46714;BME280;32445;51.376;10.874;2023-02-19T06:38:47;99271.41;;;10.45;65.17
46714;BME280;32445;51.376;10.874;2023-02-19T06:41:48;99280.91;;;10.46;64.75
46714;BME280;32445;51.376;10.874;2023-02-19T06:44:48;99286.03;;;10.48;64.64
46714;BME280;32445;51.376;10.874;2023-02-19T06:47:49;99290.25;;;10.52;64.76
46714;BME280;32445;51.376;10.874;2023-02-19T06:50:49;99290.25;;;10.52;64.25
46714;BME280;32445;51.376;10.874;2023-02-19T06:53:50;99298.88;;;10.52;64.39
46714;BME280;32445;51.376;10.874;2023-02-19T06:56:50;99300.63;;;10.52;64.45
46714;BME280;32445;51.376;10.874;2023-02-19T06:59:51;99312.75;;;10.51;64.16
46714;BME280;32445;51.376;10.874;2023-02-19T07:02:51;99315.34;;;10.51;64.25
46714;BME280;32445;51.376;10.874;2023-02-19T07:05:58;99311.13;;;10.47;64.17
46714;BME280;32445;51.376;10.874;2023-02-19T07:08:59;99322.41;;;10.46;64.28
46714;BME280;32445;51.376;10.874;2023-02-19T07:11:59;99325.09;;;10.43;64.47
46714;BME280;32445;51.376;10.874;2023-02-19T07:15:00;99327.75;;;10.42;64.59
46714;BME280;32445;51.376;10.874;2023-02-19T07:18:00;99340.75;;;10.40;64.63
46714;BME280;32445;51.376;10.874;2023-02-19T07:21:05;99341.75;;;10.36;64.63
46714;BME280;32445;51.376;10.874;2023-02-19T07:24:06;99351.31;;;10.32;64.50
46714;BME280;32445;51.376;10.874;2023-02-19T07:27:06;99357.38;;;10.31;64.47
46714;BME280;32445;51.376;10.874;2023-02-19T07:30:07;99363.41;;;10.33;64.62
46714;BME280;32445;51.376;10.874;2023-02-19T07:33:09;99366.81;;;10.35;64.32
46714;BME280;32445;51.376;10.874;2023-02-19T07:36:10;99378.63;;;10.46;64.80
46714;BME280;32445;51.376;10.874;2023-02-19T07:39:12;99390.56;;;10.53;63.89
46714;BME280;32445;51.376;10.874;2023-02-19T07:42:12;99402.56;;;10.57;64.19
46714;BME280;32445;51.376;10.874;2023-02-19T07:45:12;99410.34;;;10.57;63.65
46714;BME280;32445;51.376;10.874;2023-02-19T07:48:13;99430.25;;;10.56;63.04
46714;BME280;32445;51.376;10.874;2023-02-19T07:51:17;99430.25;;;10.56;63.24
46714;BME280;32445;51.376;10.874;2023-02-19T07:54:18;99458.03;;;10.53;62.48
46714;BME280;32445;51.376;10.874;2023-02-19T07:57:18;99466.81;;;10.47;62.51
46714;BME280;32445;51.376;10.874;2023-02-19T08:00:18;99480.59;;;10.51;62.22
46714;BME280;32445;51.376;10.874;2023-02-19T08:03:19;99488.53;;;10.45;61.89
46714;BME280;32445;51.376;10.874;2023-02-19T08:06:19;99497.16;;;10.45;61.33
46714;BME280;32445;51.376;10.874;2023-02-19T08:09:19;99503.09;;;10.50;60.79
46714;BME280;32445;51.376;10.874;2023-02-19T08:12:20;99519.44;;;10.54;61.37
46714;BME280;32445;51.376;10.874;2023-02-19T08:15:39;99540.13;;;10.57;60.44
46714;BME280;32445;51.376;10.874;2023-02-19T08:18:39;99543.63;;;10.56;60.27
46714;BME280;32445;51.376;10.874;2023-02-19T08:21:39;99547.03;;;10.58;60.13
46714;BME280;32445;51.376;10.874;2023-02-19T08:24:40;99559.03;;;10.62;59.80
46714;BME280;32445;51.376;10.874;2023-02-19T08:27:42;99572.91;;;10.61;60.23
46714;BME280;32445;51.376;10.874;2023-02-19T08:30:43;99580.63;;;10.63;60.01
46714;BME280;32445;51.376;10.874;2023-02-19T08:33:44;99583.25;;;10.63;59.86
46714;BME280;32445;51.376;10.874;2023-02-19T08:36:45;99581.56;;;10.60;59.29
46714;BME280;32445;51.376;10.874;2023-02-19T08:39:45;99584.19;;;10.59;59.25
46714;BME280;32445;51.376;10.874;2023-02-19T08:42:46;99592.00;;;10.59;59.39
46714;BME280;32445;51.376;10.874;2023-02-19T08:45:46;99602.56;;;10.51;59.21
46714;BME280;32445;51.376;10.874;2023-02-19T08:48:47;99602.66;;;10.48;59.53
46714;BME280;32445;51.376;10.874;2023-02-19T08:51:47;99618.97;;;10.51;59.20
46714;BME280;32445;51.376;10.874;2023-02-19T08:54:47;99627.59;;;10.53;59.19
46714;BME280;32445;51.376;10.874;2023-02-19T08:57:48;99636.19;;;10.55;59.78
46714;BME280;32445;51.376;10.874;2023-02-19T09:00:48;99633.56;;;10.57;59.32
46714;BME280;32445;51.376;10.874;2023-02-19T09:03:49;99634.44;;;10.58;59.41
46714;BME280;32445;51.376;10.874;2023-02-19T09:06:49;99644.78;;;10.59;59.36
46714;BME280;32445;51.376;10.874;2023-02-19T09:09:50;99638.88;;;10.52;58.95
46714;BME280;32445;51.376;10.874;2023-02-19T09:12:50;99652.81;;;10.48;58.87
46714;BME280;32445;51.376;10.874;2023-02-19T09:15:50;99659.66;;;10.51;58.77
46714;BME280;32445;51.376;10.874;2023-02-19T09:18:51;99667.41;;;10.52;59.10
46714;BME280;32445;51.376;10.874;2023-02-19T09:21:51;99676.03;;;10.54;58.48
46714;BME280;32445;51.376;10.874;2023-02-19T09:24:52;99677.81;;;10.52;59.19
46714;BME280;32445;51.376;10.874;2023-02-19T09:27:55;99684.81;;;10.47;59.08
46714;BME280;32445;51.376;10.874;2023-02-19T09:30:56;99684.81;;;10.47;58.73
46714;BME280;32445;51.376;10.874;2023-02-19T09:33:56;99694.31;;;10.48;59.16
46714;BME280;32445;51.376;10.874;2023-02-19T09:36:56;99696.13;;;10.46;58.32
46714;BME280;32445;51.376;10.874;2023-02-19T09:39:57;99703.00;;;10.47;58.47
46714;BME280;32445;51.376;10.874;2023-02-19T09:42:57;99717.66;;;10.50;58.56
46714;BME280;32445;51.376;10.874;2023-02-19T09:46:10;99714.28;;;10.46;58.55
46714;BME280;32445;51.376;10.874;2023-02-19T09:49:25;99725.50;;;10.47;58.23
46714;BME280;32445;51.376;10.874;2023-02-19T09:55:38;99722.19;;;10.40;57.88
46714;BME280;32445;51.376;10.874;2023-02-19T09:58:46;99736.88;;;10.41;57.66
46714;BME280;32445;51.376;10.874;2023-02-19T10:01:54;99743.09;;;10.34;57.65
46714;BME280;32445;51.376;10.874;2023-02-19T10:04:57;99753.47;;;10.32;58.00
46714;BME280;32445;51.376;10.874;2023-02-19T10:07:58;99763.03;;;10.30;57.25
46714;BME280;32445;51.376;10.874;2023-02-19T10:11:03;99776.91;;;10.28;57.47
46714;BME280;32445;51.376;10.874;2023-02-19T10:14:18;99778.63;;;10.27;57.25
46714;BME280;32445;51.376;10.874;2023-02-19T10:17:29;99790.88;;;10.22;57.55
46714;BME280;32445;51.376;10.874;2023-02-19T10:20:30;99794.41;;;10.18;57.10
46714;BME280;32445;51.376;10.874;2023-02-19T10:23:31;99796.94;;;10.21;56.97
46714;BME280;32445;51.376;10.874;2023-02-19T10:26:31;99808.16;;;10.23;56.93
46714;BME280;32445;51.376;10.874;2023-02-19T10:29:35;99812.50;;;10.21;56.86
46714;BME280;32445;51.376;10.874;2023-02-19T10:32:36;99814.19;;;10.24;56.60
46714;BME280;32445;51.376;10.874;2023-02-19T10:39:41;99825.31;;;10.30;56.35
46714;BME280;32445;51.376;10.874;2023-02-19T10:42:47;99830.50;;;10.30;56.32
46714;BME280;32445;51.376;10.874;2023-02-19T10:45:49;99842.53;;;10.34;56.49
46714;BME280;32445;51.376;10.874;2023-02-19T10:48:58;99854.63;;;10.35;55.89
46714;BME280;32445;51.376;10.874;2023-02-19T10:55:27;99877.00;;;10.41;55.87
46714;BME280;32445;51.376;10.874;2023-02-19T10:58:28;99885.66;;;10.42;55.91
46714;BME280;32445;51.376;10.874;2023-02-19T11:01:29;99898.63;;;10.43;56.17
46714;BME280;32445;51.376;10.874;2023-02-19T11:04:31;99893.44;;;10.43;55.80
46714;BME280;32445;51.376;10.874;2023-02-19T11:07:42;99894.31;;;10.42;55.66
46714;BME280;32445;51.376;10.874;2023-02-19T11:10:46;99898.66;;;10.40;55.68
46714;BME280;32445;51.376;10.874;2023-02-19T11:13:47;99892.56;;;10.41;55.78
46714;BME280;32445;51.376;10.874;2023-02-19T11:16:49;99894.31;;;10.42;55.96
46714;BME280;32445;51.376;10.874;2023-02-19T11:20:06;99906.41;;;10.43;55.45
46714;BME280;32445;51.376;10.874;2023-02-19T11:23:16;99908.09;;;10.44;55.78
46714;BME280;32445;51.376;10.874;2023-02-19T11:26:22;99928.84;;;10.44;55.47
46714;BME280;32445;51.376;10.874;2023-02-19T11:29:23;99921.03;;;10.46;55.51
46714;BME280;32445;51.376;10.874;2023-02-19T11:32:28;99920.25;;;10.42;55.42
46714;BME280;32445;51.376;10.874;2023-02-19T11:35:30;99913.34;;;10.41;55.74
46714;BME280;32445;51.376;10.874;2023-02-19T11:38:30;99904.72;;;10.41;55.30
46714;BME280;32445;51.376;10.874;2023-02-19T11:48:34;99914.28;;;10.37;55.56
46714;BME280;32445;51.376;10.874;2023-02-19T11:51:54;99912.53;;;10.39;55.58
46714;BME280;32445;51.376;10.874;2023-02-19T11:55:16;99914.22;;;10.42;55.62
46714;BME280;32445;51.376;10.874;2023-02-19T11:58:43;99921.88;;;10.48;55.42
46714;BME280;32445;51.376;10.874;2023-02-19T12:05:24;99929.41;;;10.60;55.16
46714;BME280;32445;51.376;10.874;2023-02-19T12:11:48;99923.38;;;10.60;54.56
46714;BME280;32445;51.376;10.874;2023-02-19T12:21:33;99913.94;;;10.55;53.88
46714;BME280;32445;51.376;10.874;2023-02-19T12:41:28;99950.50;;;10.88;53.95
46714;BME280;32445;51.376;10.874;2023-02-19T12:44:50;99945.19;;;10.95;54.41
46714;BME280;32445;51.376;10.874;2023-02-19T12:48:00;99951.16;;;10.98;54.09
46714;BME280;32445;51.376;10.874;2023-02-19T12:51:23;99944.25;;;10.97;53.53
46714;BME280;32445;51.376;10.874;2023-02-19T12:54:37;99953.72;;;11.00;53.44
46714;BME280;32445;51.376;10.874;2023-02-19T12:57:38;99939.88;;;11.01;52.84
46714;BME280;32445;51.376;10.874;2023-02-19T13:00:45;99943.38;;;10.98;52.76
46714;BME280;32445;51.376;10.874;2023-02-19T13:07:18;99946.78;;;11.00;52.91
46714;BME280;32445;51.376;10.874;2023-02-19T13:10:25;99957.13;;;11.03;52.73
46714;BME280;32445;51.376;10.874;2023-02-19T13:13:37;99965.84;;;11.01;52.50
46714;BME280;32445;51.376;10.874;2023-02-19T13:16:45;99961.53;;;11.00;52.50
46714;BME280;32445;51.376;10.874;2023-02-19T13:19:49;99975.41;;;10.97;52.41
46714;BME280;32445;51.376;10.874;2023-02-19T13:23:01;99974.66;;;10.94;52.28
46714;BME280;32445;51.376;10.874;2023-02-19T13:32:58;99972.13;;;10.90;53.16
46714;BME280;32445;51.376;10.874;2023-02-19T13:36:14;99986.78;;;10.91;52.72
46714;BME280;32445;51.376;10.874;2023-02-19T13:39:16;99993.75;;;10.91;52.77
46714;BME280;32445;51.376;10.874;2023-02-19T13:42:25;100005.00;;;10.90;52.77
46714;BME280;32445;51.376;10.874;2023-02-19T13:48:34;100015.50;;;10.85;52.08
46714;BME280;32445;51.376;10.874;2023-02-19T13:54:35;100013.72;;;10.86;53.10
46714;BME280;32445;51.376;10.874;2023-02-19T13:57:39;100012.84;;;10.87;52.92
46714;BME280;32445;51.376;10.874;2023-02-19T14:00:52;100016.31;;;10.89;53.12
46714;BME280;32445;51.376;10.874;2023-02-19T14:04:06;100019.63;;;10.96;52.54
46714;BME280;32445;51.376;10.874;2023-02-19T14:10:11;100023.84;;;11.01;52.29
46714;BME280;32445;51.376;10.874;2023-02-19T14:16:54;100015.91;;;11.09;52.42
46714;BME280;32445;51.376;10.874;2023-02-19T14:19:56;100000.28;;;11.11;53.03
46714;BME280;32445;51.376;10.874;2023-02-19T14:22:59;100003.63;;;11.16;52.63
46714;BME280;32445;51.376;10.874;2023-02-19T14:26:01;100001.84;;;11.19;52.92
46714;BME280;32445;51.376;10.874;2023-02-19T14:29:06;100004.59;;;11.10;52.62
46714;BME280;32445;51.376;10.874;2023-02-19T14:32:19;100016.75;;;11.10;52.98
46714;BME280;32445;51.376;10.874;2023-02-19T14:35:22;100001.09;;;11.13;52.86
46714;BME280;32445;51.376;10.874;2023-02-19T14:38:38;100001.06;;;11.14;52.29
46714;BME280;32445;51.376;10.874;2023-02-19T14:41:46;99997.47;;;11.20;52.87
46714;BME280;32445;51.376;10.874;2023-02-19T14:44:54;100001.81;;;11.21;52.41
46714;BME280;32445;51.376;10.874;2023-02-19T14:47:57;100007.78;;;11.24;52.37
46714;BME280;32445;51.376;10.874;2023-02-19T14:51:07;100000.84;;;11.25;52.41
46714;BME280;32445;51.376;10.874;2023-02-19T14:54:12;100000.78;;;11.28;52.81
46714;BME280;32445;51.376;10.874;2023-02-19T14:57:19;100005.97;;;11.28;52.63
46714;BME280;32445;51.376;10.874;2023-02-19T15:00:30;100002.53;;;11.28;52.83
46714;BME280;32445;51.376;10.874;2023-02-19T15:03:34;99991.22;;;11.29;53.24
46714;BME280;32445;51.376;10.874;2023-02-19T15:06:35;99993.91;;;11.25;52.84
46714;BME280;32445;51.376;10.874;2023-02-19T15:09:38;100011.28;;;11.23;52.95
46714;BME280;32445;51.376;10.874;2023-02-19T15:12:45;100016.56;;;11.20;52.47
46714;BME280;32445;51.376;10.874;2023-02-19T15:15:46;100012.50;;;11.05;52.34
46714;BME280;32445;51.376;10.874;2023-02-19T15:18:47;100023.13;;;10.95;52.25
46714;BME280;32445;51.376;10.874;2023-02-19T15:21:49;100026.81;;;10.81;52.40
46714;BME280;32445;51.376;10.874;2023-02-19T15:24:49;100031.28;;;10.73;52.42
46714;BME280;32445;51.376;10.874;2023-02-19T15:27:50;100041.66;;;10.73;52.32
46714;BME280;32445;51.376;10.874;2023-02-19T15:34:14;100046.38;;;10.52;51.56
46714;BME280;32445;51.376;10.874;2023-02-19T15:37:15;100043.22;;;10.35;51.97
46714;BME280;32445;51.376;10.874;2023-02-19T15:40:16;100039.13;;;10.17;51.20
46714;BME280;32445;51.376;10.874;2023-02-19T15:43:38;100045.34;;;10.07;52.23
46714;BME280;32445;51.376;10.874;2023-02-19T15:46:44;100038.53;;;10.01;52.39
46714;BME280;32445;51.376;10.874;2023-02-19T15:49:50;100030.75;;;10.01;52.10
46714;BME280;32445;51.376;10.874;2023-02-19T15:53:06;100037.69;;;9.99;51.69
46714;BME280;32445;51.376;10.874;2023-02-19T15:56:32;100045.50;;;9.97;51.77
46714;BME280;32445;51.376;10.874;2023-02-19T15:59:39;100053.25;;;9.99;52.24
46714;BME280;32445;51.376;10.874;2023-02-19T16:02:41;100051.66;;;9.90;51.72
46714;BME280;32445;51.376;10.874;2023-02-19T16:05:42;100049.94;;;9.89;52.32
46714;BME280;32445;51.376;10.874;2023-02-19T16:09:03;100060.38;;;9.86;52.52
46714;BME280;32445;51.376;10.874;2023-02-19T16:12:22;100064.66;;;9.89;52.32
46714;BME280;32445;51.376;10.874;2023-02-19T16:15:25;100057.69;;;9.91;52.91
46714;BME280;32445;51.376;10.874;2023-02-19T16:18:26;100057.72;;;9.89;52.81
46714;BME280;32445;51.376;10.874;2023-02-19T16:21:27;100047.38;;;9.87;52.92
46714;BME280;32445;51.376;10.874;2023-02-19T16:24:34;100049.13;;;9.84;52.40
46714;BME280;32445;51.376;10.874;2023-02-19T16:27:39;100051.78;;;9.81;52.88
46714;BME280;32445;51.376;10.874;2023-02-19T16:31:05;100057.91;;;9.75;53.29
46714;BME280;32445;51.376;10.874;2023-02-19T16:37:36;100069.31;;;9.63;53.10
46714;BME280;32445;51.376;10.874;2023-02-19T16:43:54;100066.03;;;9.49;53.76
46714;BME280;32445;51.376;10.874;2023-02-19T16:47:06;100067.00;;;9.40;53.67
46714;BME280;32445;51.376;10.874;2023-02-19T16:50:12;100083.50;;;9.34;53.20
46714;BME280;32445;51.376;10.874;2023-02-19T16:53:24;100092.22;;;9.26;53.85
46714;BME280;32445;51.376;10.874;2023-02-19T16:56:24;100100.03;;;9.20;53.18
46714;BME280;32445;51.376;10.874;2023-02-19T16:59:28;100107.06;;;9.11;53.14
46714;BME280;32445;51.376;10.874;2023-02-19T17:02:36;100105.41;;;9.03;54.03
46714;BME280;32445;51.376;10.874;2023-02-19T17:05:42;100119.28;;;8.98;53.27
46714;BME280;32445;51.376;10.874;2023-02-19T17:08:45;100117.63;;;8.91;53.72
46714;BME280;32445;51.376;10.874;2023-02-19T17:11:46;100113.38;;;8.84;53.99
46714;BME280;32445;51.376;10.874;2023-02-19T17:14:46;100118.59;;;8.78;53.89
46714;BME280;32445;51.376;10.874;2023-02-19T17:17:47;100132.44;;;8.74;53.95
46714;BME280;32445;51.376;10.874;2023-02-19T17:20:57;100129.06;;;8.67;54.05
46714;BME280;32445;51.376;10.874;2023-02-19T17:23:59;100142.00;;;8.62;54.74
46714;BME280;32445;51.376;10.874;2023-02-19T17:26:59;100145.53;;;8.57;54.10
46714;BME280;32445;51.376;10.874;2023-02-19T17:30:00;100142.97;;;8.51;54.49
46714;BME280;32445;51.376;10.874;2023-02-19T17:33:00;100155.06;;;8.48;54.74
46714;BME280;32445;51.376;10.874;2023-02-19T17:36:01;100157.69;;;8.45;54.86
46714;BME280;32445;51.376;10.874;2023-02-19T17:39:04;100155.06;;;8.42;54.94
46714;BME280;32445;51.376;10.874;2023-02-19T17:42:06;100165.44;;;8.39;54.99
46714;BME280;32445;51.376;10.874;2023-02-19T17:45:07;100167.19;;;8.37;54.92
46714;BME280;32445;51.376;10.874;2023-02-19T17:48:13;100172.38;;;8.36;55.42